sensor_id;sensor_type;location;lat;lon;timestamp;temperature;humidity
15103;DHT22;7652;53.584;9.998;2023-05-29T00:01:00;13.60;99.90
15103;DHT22;7652;53.584;9.998;2023-05-29T00:04:21;13.50;99.90
15103;DHT22;7652;53.584;9.998;2023-05-29T00:07:43;13.40;99.90
15103;DHT22;7652;53.584;9.998;2023-05-29T00:11:06;13.30;99.90
15103;DHT22;7652;53.584;9.998;2023-05-29T00:14:27;13.40;99.90
15103;DHT22;7652;53.584;9.998;2023-05-29T00:17:49;13.30;99.90
15103;DHT22;7652;53.584;9.998;2023-05-29T00:21:11;13.30;99.90
15103;DHT22;7652;53.584;9.998;2023-05-29T00:24:33;13.20;99.90
15103;DHT22;7652;53.584;9.998;2023-05-29T00:27:55;13.10;99.90
15103;DHT22;7652;53.584;9.998;2023-05-29T00:31:17;13.20;99.90
15103;DHT22;7652;53.584;9.998;2023-05-29T00:34:38;13.20;99.90
15103;DHT22;7652;53.584;9.998;2023-05-29T00:38:00;13.00;99.90
15103;DHT22;7652;53.584;9.998;2023-05-29T00:41:22;13.00;99.90
15103;DHT22;7652;53.584;9.998;2023-05-29T00:44:44;12.90;99.90
15103;DHT22;7652;53.584;9.998;2023-05-29T00:48:07;12.80;99.90
15103;DHT22;7652;53.584;9.998;2023-05-29T00:51:29;12.70;99.90
15103;DHT22;7652;53.584;9.998;2023-05-29T00:54:52;12.60;99.90
15103;DHT22;7652;53.584;9.998;2023-05-29T00:58:14;12.50;99.90
15103;DHT22;7652;53.584;9.998;2023-05-29T01:01:37;12.40;99.90
15103;DHT22;7652;53.584;9.998;2023-05-29T01:04:59;12.40;99.90
15103;DHT22;7652;53.584;9.998;2023-05-29T01:08:21;12.40;99.90
15103;DHT22;7652;53.584;9.998;2023-05-29T01:11:49;12.30;99.90
15103;DHT22;7652;53.584;9.998;2023-05-29T01:15:21;12.10;99.90
15103;DHT22;7652;53.584;9.998;2023-05-29T01:18:53;12.00;99.90
15103;DHT22;7652;53.584;9.998;2023-05-29T01:26:12;11.90;99.90
15103;DHT22;7652;53.584;9.998;2023-05-29T01:29:42;11.80;99.90
15103;DHT22;7652;53.584;9.998;2023-05-29T01:33:04;11.60;99.90
15103;DHT22;7652;53.584;9.998;2023-05-29T01:36:27;11.60;99.90
15103;DHT22;7652;53.584;9.998;2023-05-29T01:39:48;11.50;99.90
15103;DHT22;7652;53.584;9.998;2023-05-29T01:43:10;11.30;99.90
15103;DHT22;7652;53.584;9.998;2023-05-29T01:46:33;11.20;99.90
15103;DHT22;7652;53.584;9.998;2023-05-29T01:49:56;11.30;99.90
15103;DHT22;7652;53.584;9.998;2023-05-29T01:53:18;11.30;99.90
15103;DHT22;7652;53.584;9.998;2023-05-29T01:56:41;11.30;99.90
15103;DHT22;7652;53.584;9.998;2023-05-29T02:00:03;11.20;99.90
15103;DHT22;7652;53.584;9.998;2023-05-29T02:03:30;11.30;99.90
15103;DHT22;7652;53.584;9.998;2023-05-29T02:06:52;11.30;99.90
15103;DHT22;7652;53.584;9.998;2023-05-29T02:10:14;11.30;99.90
15103;DHT22;7652;53.584;9.998;2023-05-29T02:13:36;11.10;99.90
15103;DHT22;7652;53.584;9.998;2023-05-29T02:16:57;11.10;99.90
15103;DHT22;7652;53.584;9.998;2023-05-29T02:20:20;10.90;99.90
15103;DHT22;7652;53.584;9.998;2023-05-29T02:23:42;11.00;99.90
15103;DHT22;7652;53.584;9.998;2023-05-29T02:27:04;11.00;99.90
15103;DHT22;7652;53.584;9.998;2023-05-29T02:30:27;10.90;99.90
15103;DHT22;7652;53.584;9.998;2023-05-29T02:33:49;10.80;99.90
15103;DHT22;7652;53.584;9.998;2023-05-29T02:37:11;10.80;99.90
15103;DHT22;7652;53.584;9.998;2023-05-29T02:40:33;10.80;99.90
15103;DHT22;7652;53.584;9.998;2023-05-29T02:43:54;10.80;99.90
15103;DHT22;7652;53.584;9.998;2023-05-29T02:47:15;10.80;99.90
15103;DHT22;7652;53.584;9.998;2023-05-29T02:50:37;10.70;99.90
15103;DHT22;7652;53.584;9.998;2023-05-29T02:53:59;10.50;99.90
15103;DHT22;7652;53.584;9.998;2023-05-29T02:57:21;10.60;99.90
15103;DHT22;7652;53.584;9.998;2023-05-29T03:00:42;10.50;99.90
15103;DHT22;7652;53.584;9.998;2023-05-29T03:04:04;10.30;99.90
15103;DHT22;7652;53.584;9.998;2023-05-29T03:07:26;10.50;99.90
15103;DHT22;7652;53.584;9.998;2023-05-29T03:10:49;10.50;99.90
15103;DHT22;7652;53.584;9.998;2023-05-29T03:14:12;10.40;99.90
15103;DHT22;7652;53.584;9.998;2023-05-29T03:17:34;10.30;99.90
15103;DHT22;7652;53.584;9.998;2023-05-29T03:20:58;10.30;99.90
15103;DHT22;7652;53.584;9.998;2023-05-29T03:24:20;10.40;99.90
15103;DHT22;7652;53.584;9.998;2023-05-29T03:27:45;10.50;99.90
15103;DHT22;7652;53.584;9.998;2023-05-29T03:31:06;10.50;99.90
15103;DHT22;7652;53.584;9.998;2023-05-29T03:34:29;10.40;99.90
15103;DHT22;7652;53.584;9.998;2023-05-29T03:37:52;10.20;99.90
15103;DHT22;7652;53.584;9.998;2023-05-29T03:41:13;10.10;99.90
15103;DHT22;7652;53.584;9.998;2023-05-29T03:44:36;10.20;99.90
15103;DHT22;7652;53.584;9.998;2023-05-29T03:47:57;10.10;99.90
15103;DHT22;7652;53.584;9.998;2023-05-29T03:51:19;10.20;99.90
15103;DHT22;7652;53.584;9.998;2023-05-29T03:54:40;10.10;99.90
15103;DHT22;7652;53.584;9.998;2023-05-29T03:58:01;10.10;99.90
15103;DHT22;7652;53.584;9.998;2023-05-29T04:01:24;10.10;99.90
15103;DHT22;7652;53.584;9.998;2023-05-29T04:04:46;10.30;99.90
15103;DHT22;7652;53.584;9.998;2023-05-29T04:08:08;10.30;99.90
15103;DHT22;7652;53.584;9.998;2023-05-29T04:11:36;10.30;99.90
15103;DHT22;7652;53.584;9.998;2023-05-29T04:14:59;10.20;99.90
15103;DHT22;7652;53.584;9.998;2023-05-29T04:18:22;10.20;99.90
15103;DHT22;7652;53.584;9.998;2023-05-29T04:21:43;10.20;99.90
15103;DHT22;7652;53.584;9.998;2023-05-29T04:25:05;10.30;99.90
15103;DHT22;7652;53.584;9.998;2023-05-29T04:28:27;10.40;99.90
15103;DHT22;7652;53.584;9.998;2023-05-29T04:31:49;10.30;99.90
15103;DHT22;7652;53.584;9.998;2023-05-29T04:35:13;10.50;99.90
15103;DHT22;7652;53.584;9.998;2023-05-29T04:38:34;10.60;99.90
15103;DHT22;7652;53.584;9.998;2023-05-29T04:41:57;10.60;99.90
15103;DHT22;7652;53.584;9.998;2023-05-29T04:45:20;10.70;99.90
15103;DHT22;7652;53.584;9.998;2023-05-29T04:48:42;10.60;99.90
15103;DHT22;7652;53.584;9.998;2023-05-29T04:52:06;10.70;99.90
15103;DHT22;7652;53.584;9.998;2023-05-29T04:55:27;10.70;99.90
15103;DHT22;7652;53.584;9.998;2023-05-29T04:58:49;10.70;99.90
15103;DHT22;7652;53.584;9.998;2023-05-29T05:02:11;10.90;99.90
15103;DHT22;7652;53.584;9.998;2023-05-29T05:05:32;11.10;99.90
15103;DHT22;7652;53.584;9.998;2023-05-29T05:08:55;11.20;99.90
15103;DHT22;7652;53.584;9.998;2023-05-29T05:12:17;11.30;99.90
15103;DHT22;7652;53.584;9.998;2023-05-29T05:15:38;11.30;99.90
15103;DHT22;7652;53.584;9.998;2023-05-29T05:19:00;11.30;99.90
15103;DHT22;7652;53.584;9.998;2023-05-29T05:22:21;11.30;99.90
15103;DHT22;7652;53.584;9.998;2023-05-29T05:25:44;11.30;99.90
15103;DHT22;7652;53.584;9.998;2023-05-29T05:29:05;11.40;99.90
15103;DHT22;7652;53.584;9.998;2023-05-29T05:32:27;11.40;99.90
15103;DHT22;7652;53.584;9.998;2023-05-29T05:35:48;11.70;99.90
15103;DHT22;7652;53.584;9.998;2023-05-29T05:39:10;11.80;99.90
15103;DHT22;7652;53.584;9.998;2023-05-29T05:42:32;12.10;99.90
15103;DHT22;7652;53.584;9.998;2023-05-29T05:45:54;12.40;99.90
15103;DHT22;7652;53.584;9.998;2023-05-29T05:49:16;12.90;99.90
15103;DHT22;7652;53.584;9.998;2023-05-29T05:52:37;13.10;99.90
15103;DHT22;7652;53.584;9.998;2023-05-29T05:55:58;13.60;99.90
15103;DHT22;7652;53.584;9.998;2023-05-29T05:59:21;14.00;99.90
15103;DHT22;7652;53.584;9.998;2023-05-29T06:02:43;14.40;99.90
15103;DHT22;7652;53.584;9.998;2023-05-29T06:06:06;14.90;99.90
15103;DHT22;7652;53.584;9.998;2023-05-29T06:09:29;15.20;99.90
15103;DHT22;7652;53.584;9.998;2023-05-29T06:12:50;15.40;99.90
15103;DHT22;7652;53.584;9.998;2023-05-29T06:16:14;15.70;99.90
15103;DHT22;7652;53.584;9.998;2023-05-29T06:19:36;16.20;99.90
15103;DHT22;7652;53.584;9.998;2023-05-29T06:22:57;16.40;99.90
15103;DHT22;7652;53.584;9.998;2023-05-29T06:26:19;16.80;99.90
15103;DHT22;7652;53.584;9.998;2023-05-29T06:29:41;16.90;99.90
15103;DHT22;7652;53.584;9.998;2023-05-29T06:33:04;16.70;99.90
15103;DHT22;7652;53.584;9.998;2023-05-29T06:36:26;16.60;99.90
15103;DHT22;7652;53.584;9.998;2023-05-29T06:39:48;16.60;99.90
15103;DHT22;7652;53.584;9.998;2023-05-29T06:43:10;16.80;99.90
15103;DHT22;7652;53.584;9.998;2023-05-29T06:46:31;16.60;99.90
15103;DHT22;7652;53.584;9.998;2023-05-29T06:49:55;17.10;99.90
15103;DHT22;7652;53.584;9.998;2023-05-29T06:53:16;17.10;99.90
15103;DHT22;7652;53.584;9.998;2023-05-29T06:56:38;16.80;99.90
15103;DHT22;7652;53.584;9.998;2023-05-29T07:00:00;16.30;99.90
15103;DHT22;7652;53.584;9.998;2023-05-29T07:03:21;15.80;99.90
15103;DHT22;7652;53.584;9.998;2023-05-29T07:06:45;15.30;99.90
15103;DHT22;7652;53.584;9.998;2023-05-29T07:10:07;15.30;99.90
15103;DHT22;7652;53.584;9.998;2023-05-29T07:13:28;15.20;99.90
15103;DHT22;7652;53.584;9.998;2023-05-29T07:16:49;15.10;99.90
15103;DHT22;7652;53.584;9.998;2023-05-29T07:20:11;15.10;99.90
15103;DHT22;7652;53.584;9.998;2023-05-29T07:23:36;14.90;99.90
15103;DHT22;7652;53.584;9.998;2023-05-29T07:26:57;14.80;99.90
15103;DHT22;7652;53.584;9.998;2023-05-29T07:30:19;14.60;99.90
15103;DHT22;7652;53.584;9.998;2023-05-29T07:33:40;14.70;99.90
15103;DHT22;7652;53.584;9.998;2023-05-29T07:37:03;14.60;99.90
15103;DHT22;7652;53.584;9.998;2023-05-29T07:40:26;14.60;99.90
15103;DHT22;7652;53.584;9.998;2023-05-29T07:43:47;14.50;99.90
15103;DHT22;7652;53.584;9.998;2023-05-29T07:47:12;14.60;99.90
15103;DHT22;7652;53.584;9.998;2023-05-29T07:50:33;14.80;99.90
15103;DHT22;7652;53.584;9.998;2023-05-29T07:53:55;14.90;99.90
15103;DHT22;7652;53.584;9.998;2023-05-29T07:57:18;15.00;99.90
15103;DHT22;7652;53.584;9.998;2023-05-29T08:00:40;15.10;99.90
15103;DHT22;7652;53.584;9.998;2023-05-29T08:04:02;15.30;99.90
15103;DHT22;7652;53.584;9.998;2023-05-29T08:07:24;15.30;99.90
15103;DHT22;7652;53.584;9.998;2023-05-29T08:10:47;15.30;99.90
15103;DHT22;7652;53.584;9.998;2023-05-29T08:14:09;15.30;99.90
15103;DHT22;7652;53.584;9.998;2023-05-29T08:17:31;15.40;99.90
15103;DHT22;7652;53.584;9.998;2023-05-29T08:20:53;15.30;99.90
15103;DHT22;7652;53.584;9.998;2023-05-29T08:24:15;15.40;99.90
15103;DHT22;7652;53.584;9.998;2023-05-29T08:27:36;15.50;99.90
15103;DHT22;7652;53.584;9.998;2023-05-29T08:30:59;15.60;99.90
15103;DHT22;7652;53.584;9.998;2023-05-29T08:34:21;15.70;99.90
15103;DHT22;7652;53.584;9.998;2023-05-29T08:37:44;15.70;99.90
15103;DHT22;7652;53.584;9.998;2023-05-29T08:41:07;15.80;99.90
15103;DHT22;7652;53.584;9.998;2023-05-29T08:44:30;15.80;99.90
15103;DHT22;7652;53.584;9.998;2023-05-29T08:47:54;15.80;99.90
15103;DHT22;7652;53.584;9.998;2023-05-29T08:51:18;15.80;99.90
15103;DHT22;7652;53.584;9.998;2023-05-29T08:54:40;15.90;99.90
15103;DHT22;7652;53.584;9.998;2023-05-29T08:58:02;15.90;99.90
15103;DHT22;7652;53.584;9.998;2023-05-29T09:01:25;16.20;99.90
15103;DHT22;7652;53.584;9.998;2023-05-29T09:04:48;16.20;99.90
15103;DHT22;7652;53.584;9.998;2023-05-29T09:08:10;16.20;99.90
15103;DHT22;7652;53.584;9.998;2023-05-29T09:11:33;16.30;99.90
15103;DHT22;7652;53.584;9.998;2023-05-29T09:14:55;16.50;99.90
15103;DHT22;7652;53.584;9.998;2023-05-29T09:18:17;16.70;99.90
15103;DHT22;7652;53.584;9.998;2023-05-29T09:21:39;16.60;99.90
15103;DHT22;7652;53.584;9.998;2023-05-29T09:25:01;16.70;99.90
15103;DHT22;7652;53.584;9.998;2023-05-29T09:28:23;16.80;99.90
15103;DHT22;7652;53.584;9.998;2023-05-29T09:31:47;16.80;99.90
15103;DHT22;7652;53.584;9.998;2023-05-29T09:35:09;16.70;99.90
15103;DHT22;7652;53.584;9.998;2023-05-29T09:38:32;17.00;99.90
15103;DHT22;7652;53.584;9.998;2023-05-29T09:41:58;17.20;99.90
15103;DHT22;7652;53.584;9.998;2023-05-29T09:45:20;17.30;99.90
15103;DHT22;7652;53.584;9.998;2023-05-29T09:48:43;17.20;99.90
15103;DHT22;7652;53.584;9.998;2023-05-29T09:52:05;17.30;99.90
15103;DHT22;7652;53.584;9.998;2023-05-29T09:55:30;17.30;99.90
15103;DHT22;7652;53.584;9.998;2023-05-29T09:58:53;17.50;99.90
15103;DHT22;7652;53.584;9.998;2023-05-29T10:02:18;17.60;99.90
15103;DHT22;7652;53.584;9.998;2023-05-29T10:05:40;17.60;99.90
15103;DHT22;7652;53.584;9.998;2023-05-29T10:09:02;17.70;99.90
15103;DHT22;7652;53.584;9.998;2023-05-29T10:12:27;17.70;99.90
15103;DHT22;7652;53.584;9.998;2023-05-29T10:15:50;17.80;99.90
15103;DHT22;7652;53.584;9.998;2023-05-29T10:19:19;17.90;99.90
15103;DHT22;7652;53.584;9.998;2023-05-29T10:22:52;18.10;99.90
15103;DHT22;7652;53.584;9.998;2023-05-29T10:26:19;18.10;99.90
15103;DHT22;7652;53.584;9.998;2023-05-29T10:29:49;18.00;99.90
15103;DHT22;7652;53.584;9.998;2023-05-29T10:37:14;18.00;99.90
15103;DHT22;7652;53.584;9.998;2023-05-29T10:40:38;18.20;99.90
15103;DHT22;7652;53.584;9.998;2023-05-29T10:44:00;18.40;99.90
15103;DHT22;7652;53.584;9.998;2023-05-29T10:47:24;18.40;99.90
15103;DHT22;7652;53.584;9.998;2023-05-29T10:50:47;18.40;99.90
15103;DHT22;7652;53.584;9.998;2023-05-29T10:54:10;18.30;99.90
15103;DHT22;7652;53.584;9.998;2023-05-29T10:57:34;18.40;99.90
15103;DHT22;7652;53.584;9.998;2023-05-29T11:00:57;18.50;99.90
15103;DHT22;7652;53.584;9.998;2023-05-29T11:04:27;18.50;99.90
15103;DHT22;7652;53.584;9.998;2023-05-29T11:07:51;18.70;99.90
15103;DHT22;7652;53.584;9.998;2023-05-29T11:11:15;18.70;99.50
15103;DHT22;7652;53.584;9.998;2023-05-29T11:14:45;18.80;99.90
15103;DHT22;7652;53.584;9.998;2023-05-29T11:18:08;18.80;98.90
15103;DHT22;7652;53.584;9.998;2023-05-29T11:21:33;18.90;98.60
15103;DHT22;7652;53.584;9.998;2023-05-29T11:24:56;19.00;98.40
15103;DHT22;7652;53.584;9.998;2023-05-29T11:28:19;19.10;98.70
15103;DHT22;7652;53.584;9.998;2023-05-29T11:31:40;19.10;99.50
15103;DHT22;7652;53.584;9.998;2023-05-29T11:35:07;19.10;99.00
15103;DHT22;7652;53.584;9.998;2023-05-29T11:38:30;19.30;99.10
15103;DHT22;7652;53.584;9.998;2023-05-29T11:41:52;19.20;98.60
15103;DHT22;7652;53.584;9.998;2023-05-29T11:45:15;19.20;98.70
15103;DHT22;7652;53.584;9.998;2023-05-29T11:48:44;19.40;98.30
15103;DHT22;7652;53.584;9.998;2023-05-29T11:52:07;19.50;98.60
15103;DHT22;7652;53.584;9.998;2023-05-29T11:55:33;19.60;98.20
15103;DHT22;7652;53.584;9.998;2023-05-29T11:58:55;19.70;97.70
15103;DHT22;7652;53.584;9.998;2023-05-29T12:02:18;20.00;97.20
15103;DHT22;7652;53.584;9.998;2023-05-29T12:05:47;20.00;96.90
15103;DHT22;7652;53.584;9.998;2023-05-29T12:09:24;20.00;96.90
15103;DHT22;7652;53.584;9.998;2023-05-29T12:12:52;20.30;96.50
15103;DHT22;7652;53.584;9.998;2023-05-29T12:16:14;21.00;96.30
15103;DHT22;7652;53.584;9.998;2023-05-29T12:19:36;21.40;94.60
15103;DHT22;7652;53.584;9.998;2023-05-29T12:22:59;21.40;94.30
15103;DHT22;7652;53.584;9.998;2023-05-29T12:26:22;21.30;94.70
15103;DHT22;7652;53.584;9.998;2023-05-29T12:29:45;21.70;94.20
15103;DHT22;7652;53.584;9.998;2023-05-29T12:33:07;22.10;92.80
15103;DHT22;7652;53.584;9.998;2023-05-29T12:36:28;22.40;92.40
15103;DHT22;7652;53.584;9.998;2023-05-29T12:40:09;22.30;91.00
15103;DHT22;7652;53.584;9.998;2023-05-29T12:43:31;23.20;90.90
15103;DHT22;7652;53.584;9.998;2023-05-29T12:46:56;24.70;88.00
15103;DHT22;7652;53.584;9.998;2023-05-29T12:50:22;25.60;82.00
15103;DHT22;7652;53.584;9.998;2023-05-29T12:53:43;26.80;76.80
15103;DHT22;7652;53.584;9.998;2023-05-29T12:57:05;27.40;72.80
15103;DHT22;7652;53.584;9.998;2023-05-29T13:00:27;26.60;71.20
15103;DHT22;7652;53.584;9.998;2023-05-29T13:03:49;26.90;71.20
15103;DHT22;7652;53.584;9.998;2023-05-29T13:07:11;26.00;67.70
15103;DHT22;7652;53.584;9.998;2023-05-29T13:10:33;26.10;69.40
15103;DHT22;7652;53.584;9.998;2023-05-29T13:13:55;26.00;67.30
15103;DHT22;7652;53.584;9.998;2023-05-29T13:17:17;25.80;70.60
15103;DHT22;7652;53.584;9.998;2023-05-29T13:20:40;25.20;67.60
15103;DHT22;7652;53.584;9.998;2023-05-29T13:24:02;25.00;67.00
15103;DHT22;7652;53.584;9.998;2023-05-29T13:27:24;24.60;69.50
15103;DHT22;7652;53.584;9.998;2023-05-29T13:30:46;24.30;67.50
15103;DHT22;7652;53.584;9.998;2023-05-29T13:34:08;23.30;71.80
15103;DHT22;7652;53.584;9.998;2023-05-29T13:37:30;23.40;72.00
15103;DHT22;7652;53.584;9.998;2023-05-29T13:40:52;23.20;71.00
15103;DHT22;7652;53.584;9.998;2023-05-29T13:44:13;22.80;71.80
15103;DHT22;7652;53.584;9.998;2023-05-29T13:47:35;22.80;72.30
15103;DHT22;7652;53.584;9.998;2023-05-29T13:50:57;22.70;73.00
15103;DHT22;7652;53.584;9.998;2023-05-29T13:54:19;22.80;73.90
15103;DHT22;7652;53.584;9.998;2023-05-29T13:57:42;22.80;71.70
15103;DHT22;7652;53.584;9.998;2023-05-29T14:01:04;22.70;72.80
15103;DHT22;7652;53.584;9.998;2023-05-29T14:04:26;22.70;71.80
15103;DHT22;7652;53.584;9.998;2023-05-29T14:07:48;22.60;72.10
15103;DHT22;7652;53.584;9.998;2023-05-29T14:11:10;22.50;72.30
15103;DHT22;7652;53.584;9.998;2023-05-29T14:14:32;22.40;73.00
15103;DHT22;7652;53.584;9.998;2023-05-29T14:17:54;22.40;75.20
15103;DHT22;7652;53.584;9.998;2023-05-29T14:21:15;22.50;73.80
15103;DHT22;7652;53.584;9.998;2023-05-29T14:24:37;22.50;73.50
15103;DHT22;7652;53.584;9.998;2023-05-29T14:28:00;22.10;73.50
15103;DHT22;7652;53.584;9.998;2023-05-29T14:31:21;22.00;74.60
15103;DHT22;7652;53.584;9.998;2023-05-29T14:34:43;22.10;75.20
15103;DHT22;7652;53.584;9.998;2023-05-29T14:38:04;22.20;73.70
15103;DHT22;7652;53.584;9.998;2023-05-29T14:41:26;22.30;74.40
15103;DHT22;7652;53.584;9.998;2023-05-29T14:44:49;22.30;73.20
15103;DHT22;7652;53.584;9.998;2023-05-29T14:48:10;22.20;72.70
15103;DHT22;7652;53.584;9.998;2023-05-29T14:51:32;22.20;73.90
15103;DHT22;7652;53.584;9.998;2023-05-29T14:54:54;22.00;74.50
15103;DHT22;7652;53.584;9.998;2023-05-29T14:58:16;22.10;74.50
15103;DHT22;7652;53.584;9.998;2023-05-29T15:01:39;21.90;74.60
15103;DHT22;7652;53.584;9.998;2023-05-29T15:05:00;22.00;75.10
15103;DHT22;7652;53.584;9.998;2023-05-29T15:08:22;22.10;75.00
15103;DHT22;7652;53.584;9.998;2023-05-29T15:11:43;22.10;74.70
15103;DHT22;7652;53.584;9.998;2023-05-29T15:15:06;22.00;76.30
15103;DHT22;7652;53.584;9.998;2023-05-29T15:18:29;21.80;76.10
15103;DHT22;7652;53.584;9.998;2023-05-29T15:21:50;21.80;76.80
15103;DHT22;7652;53.584;9.998;2023-05-29T15:25:12;21.70;80.50
15103;DHT22;7652;53.584;9.998;2023-05-29T15:28:34;21.70;82.80
15103;DHT22;7652;53.584;9.998;2023-05-29T15:31:55;21.60;84.40
15103;DHT22;7652;53.584;9.998;2023-05-29T15:35:18;21.60;84.70
15103;DHT22;7652;53.584;9.998;2023-05-29T15:38:40;21.70;84.50
15103;DHT22;7652;53.584;9.998;2023-05-29T15:42:01;21.60;85.30
15103;DHT22;7652;53.584;9.998;2023-05-29T15:45:23;21.50;86.60
15103;DHT22;7652;53.584;9.998;2023-05-29T15:48:44;21.40;86.50
15103;DHT22;7652;53.584;9.998;2023-05-29T15:52:07;21.50;86.20
15103;DHT22;7652;53.584;9.998;2023-05-29T15:55:29;21.50;88.70
15103;DHT22;7652;53.584;9.998;2023-05-29T15:58:50;21.50;88.10
15103;DHT22;7652;53.584;9.998;2023-05-29T16:02:12;21.50;89.30
15103;DHT22;7652;53.584;9.998;2023-05-29T16:05:34;21.30;88.90
15103;DHT22;7652;53.584;9.998;2023-05-29T16:08:56;21.20;89.20
15103;DHT22;7652;53.584;9.998;2023-05-29T16:12:18;21.00;90.10
15103;DHT22;7652;53.584;9.998;2023-05-29T16:15:40;21.00;90.20
15103;DHT22;7652;53.584;9.998;2023-05-29T16:19:03;21.00;90.50
15103;DHT22;7652;53.584;9.998;2023-05-29T16:22:26;20.90;90.90
15103;DHT22;7652;53.584;9.998;2023-05-29T16:26:03;20.80;90.10
15103;DHT22;7652;53.584;9.998;2023-05-29T16:29:24;20.80;91.20
15103;DHT22;7652;53.584;9.998;2023-05-29T16:32:46;20.80;91.50
15103;DHT22;7652;53.584;9.998;2023-05-29T16:36:08;20.80;91.70
15103;DHT22;7652;53.584;9.998;2023-05-29T16:39:29;20.80;92.30
15103;DHT22;7652;53.584;9.998;2023-05-29T16:42:53;20.70;92.60
15103;DHT22;7652;53.584;9.998;2023-05-29T16:46:15;20.80;92.80
15103;DHT22;7652;53.584;9.998;2023-05-29T16:49:36;20.70;92.80
15103;DHT22;7652;53.584;9.998;2023-05-29T16:53:00;20.60;93.80
15103;DHT22;7652;53.584;9.998;2023-05-29T16:56:23;20.50;94.50
15103;DHT22;7652;53.584;9.998;2023-05-29T16:59:46;20.40;95.30
15103;DHT22;7652;53.584;9.998;2023-05-29T17:03:08;20.40;95.10
15103;DHT22;7652;53.584;9.998;2023-05-29T17:06:30;20.50;95.30
15103;DHT22;7652;53.584;9.998;2023-05-29T17:09:52;20.40;95.60
15103;DHT22;7652;53.584;9.998;2023-05-29T17:13:13;20.40;96.20
15103;DHT22;7652;53.584;9.998;2023-05-29T17:16:37;20.40;95.70
15103;DHT22;7652;53.584;9.998;2023-05-29T17:19:58;20.30;95.50
15103;DHT22;7652;53.584;9.998;2023-05-29T17:23:20;20.20;95.30
15103;DHT22;7652;53.584;9.998;2023-05-29T17:26:41;20.10;95.10
15103;DHT22;7652;53.584;9.998;2023-05-29T17:30:03;19.90;94.90
15103;DHT22;7652;53.584;9.998;2023-05-29T17:33:26;19.80;96.10
15103;DHT22;7652;53.584;9.998;2023-05-29T17:36:47;19.70;96.00
15103;DHT22;7652;53.584;9.998;2023-05-29T17:40:10;19.60;96.20
15103;DHT22;7652;53.584;9.998;2023-05-29T17:43:33;19.60;95.50
15103;DHT22;7652;53.584;9.998;2023-05-29T17:46:54;19.40;95.70
15103;DHT22;7652;53.584;9.998;2023-05-29T17:50:17;19.20;96.30
15103;DHT22;7652;53.584;9.998;2023-05-29T17:53:38;19.20;96.20
15103;DHT22;7652;53.584;9.998;2023-05-29T17:57:00;19.00;96.50
15103;DHT22;7652;53.584;9.998;2023-05-29T18:00:22;18.90;97.30
15103;DHT22;7652;53.584;9.998;2023-05-29T18:03:43;18.90;97.80
15103;DHT22;7652;53.584;9.998;2023-05-29T18:07:06;18.90;96.90
15103;DHT22;7652;53.584;9.998;2023-05-29T18:10:28;18.80;96.40
15103;DHT22;7652;53.584;9.998;2023-05-29T18:13:49;18.60;96.90
15103;DHT22;7652;53.584;9.998;2023-05-29T18:17:11;18.60;96.90
15103;DHT22;7652;53.584;9.998;2023-05-29T18:20:32;18.50;96.80
15103;DHT22;7652;53.584;9.998;2023-05-29T18:23:55;18.30;97.00
15103;DHT22;7652;53.584;9.998;2023-05-29T18:27:17;18.30;96.80
15103;DHT22;7652;53.584;9.998;2023-05-29T18:30:39;18.20;97.40
15103;DHT22;7652;53.584;9.998;2023-05-29T18:34:02;18.10;97.00
15103;DHT22;7652;53.584;9.998;2023-05-29T18:37:24;17.90;97.00
15103;DHT22;7652;53.584;9.998;2023-05-29T18:40:47;17.90;97.10
15103;DHT22;7652;53.584;9.998;2023-05-29T18:44:08;17.80;97.10
15103;DHT22;7652;53.584;9.998;2023-05-29T18:47:30;17.70;97.30
15103;DHT22;7652;53.584;9.998;2023-05-29T18:50:52;17.60;97.70
15103;DHT22;7652;53.584;9.998;2023-05-29T18:54:14;17.50;97.80
15103;DHT22;7652;53.584;9.998;2023-05-29T18:57:38;17.40;98.50
15103;DHT22;7652;53.584;9.998;2023-05-29T19:01:00;17.30;98.90
15103;DHT22;7652;53.584;9.998;2023-05-29T19:04:42;17.30;98.70
15103;DHT22;7652;53.584;9.998;2023-05-29T19:08:04;17.30;98.90
15103;DHT22;7652;53.584;9.998;2023-05-29T19:11:27;17.10;99.60
15103;DHT22;7652;53.584;9.998;2023-05-29T19:14:50;17.20;99.70
15103;DHT22;7652;53.584;9.998;2023-05-29T19:18:11;17.10;99.90
15103;DHT22;7652;53.584;9.998;2023-05-29T19:21:33;16.90;99.90
15103;DHT22;7652;53.584;9.998;2023-05-29T19:24:55;16.90;99.90
15103;DHT22;7652;53.584;9.998;2023-05-29T19:28:16;16.80;99.90
15103;DHT22;7652;53.584;9.998;2023-05-29T19:31:39;16.80;99.90
15103;DHT22;7652;53.584;9.998;2023-05-29T19:35:02;16.60;99.90
15103;DHT22;7652;53.584;9.998;2023-05-29T19:38:24;16.50;99.90
15103;DHT22;7652;53.584;9.998;2023-05-29T19:41:45;16.30;99.90
15103;DHT22;7652;53.584;9.998;2023-05-29T19:45:07;16.30;99.90
15103;DHT22;7652;53.584;9.998;2023-05-29T19:48:30;16.20;99.90
15103;DHT22;7652;53.584;9.998;2023-05-29T19:51:59;16.20;99.90
15103;DHT22;7652;53.584;9.998;2023-05-29T19:55:22;16.20;99.90
15103;DHT22;7652;53.584;9.998;2023-05-29T19:58:45;16.00;99.90
15103;DHT22;7652;53.584;9.998;2023-05-29T20:02:09;16.00;99.90
15103;DHT22;7652;53.584;9.998;2023-05-29T20:05:32;15.90;99.90
15103;DHT22;7652;53.584;9.998;2023-05-29T20:08:53;15.70;99.90
15103;DHT22;7652;53.584;9.998;2023-05-29T20:12:15;15.50;99.90
15103;DHT22;7652;53.584;9.998;2023-05-29T20:15:36;15.40;99.90
15103;DHT22;7652;53.584;9.998;2023-05-29T20:18:58;15.40;99.90
15103;DHT22;7652;53.584;9.998;2023-05-29T20:22:21;15.30;99.90
15103;DHT22;7652;53.584;9.998;2023-05-29T20:25:42;15.20;99.90
15103;DHT22;7652;53.584;9.998;2023-05-29T20:29:04;15.10;99.90
15103;DHT22;7652;53.584;9.998;2023-05-29T20:32:25;15.00;99.90
15103;DHT22;7652;53.584;9.998;2023-05-29T20:35:47;15.10;99.90
15103;DHT22;7652;53.584;9.998;2023-05-29T20:39:11;14.90;99.90
15103;DHT22;7652;53.584;9.998;2023-05-29T20:42:39;14.90;99.90
15103;DHT22;7652;53.584;9.998;2023-05-29T20:46:03;14.90;99.90
15103;DHT22;7652;53.584;9.998;2023-05-29T20:49:25;14.80;99.90
15103;DHT22;7652;53.584;9.998;2023-05-29T20:52:48;14.80;99.90
15103;DHT22;7652;53.584;9.998;2023-05-29T20:56:11;14.70;99.90
15103;DHT22;7652;53.584;9.998;2023-05-29T20:59:33;14.60;99.90
15103;DHT22;7652;53.584;9.998;2023-05-29T21:02:54;14.50;99.90
15103;DHT22;7652;53.584;9.998;2023-05-29T21:06:16;14.50;99.90
15103;DHT22;7652;53.584;9.998;2023-05-29T21:09:38;14.40;99.90
15103;DHT22;7652;53.584;9.998;2023-05-29T21:13:01;14.50;99.90
15103;DHT22;7652;53.584;9.998;2023-05-29T21:16:40;14.30;99.90
15103;DHT22;7652;53.584;9.998;2023-05-29T21:20:02;14.30;99.90
15103;DHT22;7652;53.584;9.998;2023-05-29T21:23:25;14.30;99.90
15103;DHT22;7652;53.584;9.998;2023-05-29T21:26:48;14.20;99.90
15103;DHT22;7652;53.584;9.998;2023-05-29T21:30:11;14.30;99.90
15103;DHT22;7652;53.584;9.998;2023-05-29T21:33:33;14.20;99.90
15103;DHT22;7652;53.584;9.998;2023-05-29T21:36:55;14.20;99.90
15103;DHT22;7652;53.584;9.998;2023-05-29T21:40:16;14.20;99.90
15103;DHT22;7652;53.584;9.998;2023-05-29T21:43:39;14.10;99.90
15103;DHT22;7652;53.584;9.998;2023-05-29T21:47:04;14.00;99.90